Time;durP1;ratioP1;P1;durP2;ratioP2;P2;SDS_P1;SDS_P2;PMS_P1;PMS_P2;Temp;Humidity;BMP_temperature;BMP_pressure;BME280_temperature;BME280_humidity;BME280_pressure;Samples;Min_cycle;Max_cycle;Signal;HPM_P1;HPM_P2
2023/07/15 00:00:14;;;;;;;;;4.00;4.00;;;;;26.38;36.34;100096.50;5078687;28;46365;-66
2023/07/15 00:02:41;;;;;;;;;4.67;4.00;;;;;26.47;36.59;100105.84;5078900;28;45216;-67
2023/07/15 00:05:18;;;;;;;;;4.00;3.00;;;;;26.50;36.61;100118.09;5079035;28;45316;-67
2023/07/15 00:07:44;;;;;;;;;2.67;2.67;;;;;26.45;37.21;100115.34;5078930;27;45312;-69
2023/07/15 00:10:10;;;;;;;;;2.00;2.00;;;;;26.31;37.53;100096.69;5060290;28;46508;-67
2023/07/15 00:12:35;;;;;;;;;3.00;2.00;;;;;26.43;37.48;100112.03;5060457;28;45492;-67
2023/07/15 00:15:00;;;;;;;;;1.00;1.00;;;;;26.36;37.54;100104.94;5078709;27;45286;-67
2023/07/15 00:17:26;;;;;;;;;2.00;2.00;;;;;26.36;37.75;100102.22;5078974;28;45386;-66
2023/07/15 00:19:51;;;;;;;;;1.67;1.67;;;;;26.38;38.09;100108.22;5078199;28;45430;-67
2023/07/15 00:22:16;;;;;;;;;1.67;1.33;;;;;26.38;38.57;100110.13;5078036;28;56612;-66
2023/07/15 00:24:42;;;;;;;;;2.67;2.00;;;;;26.34;38.45;100115.28;5077917;27;52879;-67
2023/07/15 00:27:08;;;;;;;;;2.00;2.00;;;;;26.34;38.73;100108.97;5078571;28;45288;-66
2023/07/15 00:29:33;;;;;;;;;1.00;1.00;;;;;26.23;39.18;100108.13;5078340;28;45882;-67
2023/07/15 00:32:01;;;;;;;;;2.00;2.00;;;;;26.28;39.72;100120.94;5078111;27;45396;-68
2023/07/15 00:34:27;;;;;;;;;2.00;2.00;;;;;26.27;40.16;100127.47;5060906;28;45329;-67
2023/07/15 00:36:52;;;;;;;;;1.00;1.00;;;;;26.14;40.24;100104.22;5078513;27;45502;-65
2023/07/15 00:39:17;;;;;;;;;1.00;1.00;;;;;26.20;40.71;100127.69;5078128;28;46310;-67
2023/07/15 00:41:43;;;;;;;;;0.00;0.00;;;;;26.19;41.09;100122.50;5077800;27;45164;-67
2023/07/15 00:44:14;;;;;;;;;1.33;1.33;;;;;26.19;41.23;100123.31;5078563;28;45185;-67
2023/07/15 00:47:03;;;;;;;;;0.67;0.67;;;;;26.14;42.00;100131.47;5078371;27;45241;-67
2023/07/15 00:49:31;;;;;;;;;1.00;1.00;;;;;26.14;41.94;100131.47;5077713;27;45871;-67
2023/07/15 00:52:11;;;;;;;;;1.00;1.00;;;;;26.10;42.38;100138.53;5077946;28;45419;-66
2023/07/15 00:54:41;;;;;;;;;0.33;0.33;;;;;26.01;43.08;100126.44;5077928;27;45252;-67
2023/07/15 00:57:09;;;;;;;;;1.67;1.00;;;;;25.96;43.42;100120.97;5077606;28;45264;-67
2023/07/15 00:59:36;;;;;;;;;1.00;1.00;;;;;25.88;43.50;100116.00;5077745;28;47827;-67
2023/07/15 01:02:01;;;;;;;;;1.67;1.00;;;;;25.89;44.07;100139.44;5077713;27;45295;-67
2023/07/15 01:04:27;;;;;;;;;0.00;0.00;;;;;25.92;44.44;100150.63;5078309;27;45224;-67
2023/07/15 01:06:53;;;;;;;;;1.33;1.00;;;;;25.88;44.76;100144.06;5078162;28;45455;-67
2023/07/15 01:09:19;;;;;;;;;3.00;1.67;;;;;25.84;45.09;100147.56;5077552;27;46153;-67
2023/07/15 01:11:45;;;;;;;;;1.00;1.00;;;;;25.55;45.18;100098.00;5077289;27;45351;-67
2023/07/15 01:14:12;;;;;;;;;0.33;0.33;;;;;25.84;45.48;100139.41;5077880;28;45485;-67
2023/07/15 01:16:38;;;;;;;;;1.00;1.00;;;;;25.82;45.81;100145.09;5078030;28;45364;-67
2023/07/15 01:19:03;;;;;;;;;0.00;0.00;;;;;25.83;45.96;100140.47;5077502;28;47435;-67
2023/07/15 01:21:31;;;;;;;;;1.00;1.00;;;;;25.81;46.43;100142.63;5059475;28;46051;-70
2023/07/15 01:23:56;;;;;;;;;3.00;1.67;;;;;25.82;46.39;100138.81;5077671;27;45372;-67
2023/07/15 01:26:22;;;;;;;;;0.75;0.75;;;;;25.82;46.91;100136.09;5077684;28;45445;-67
2023/07/15 01:28:47;;;;;;;;;0.50;0.50;;;;;25.78;47.39;100138.53;5077498;28;46707;-66
2023/07/15 01:31:14;;;;;;;;;0.50;0.50;;;;;25.76;47.43;100136.06;5077519;28;45214;-66
2023/07/15 01:33:40;;;;;;;;;0.50;0.50;;;;;25.74;47.63;100143.66;5077629;28;45602;-67
2023/07/15 01:36:06;;;;;;;;;1.00;1.00;;;;;25.75;47.86;100144.47;5059423;28;45574;-66
2023/07/15 01:38:32;;;;;;;;;1.00;1.00;;;;;25.09;47.66;100027.63;5077486;27;45630;-66
2023/07/15 01:40:57;;;;;;;;;0.67;0.67;;;;;25.70;48.10;100125.38;5077021;28;45464;-67
2023/07/15 01:43:23;;;;;;;;;1.00;1.00;;;;;25.72;47.84;100118.59;5077639;27;45320;-67
2023/07/15 01:45:48;;;;;;;;;5.00;5.00;;;;;25.70;48.30;100107.16;5059588;28;45316;-66
2023/07/15 01:48:13;;;;;;;;;8.00;7.00;;;;;25.66;48.38;100124.25;5076809;28;58635;-67
2023/07/15 01:50:39;;;;;;;;;18.00;14.00;;;;;25.62;48.22;100107.56;5076692;28;63255;-67
2023/07/15 01:53:05;;;;;;;;;18.33;16.00;;;;;25.68;48.97;100119.38;5059119;28;45486;-67
2023/07/15 01:55:30;;;;;;;;;15.33;12.67;;;;;25.61;49.15;100099.66;5077268;27;45502;-66
2023/07/15 01:57:56;;;;;;;;;14.67;13.33;;;;;25.62;48.87;100109.47;5076814;28;45621;-66
2023/07/15 02:00:21;;;;;;;;;25.00;20.33;;;;;25.56;49.44;100096.91;5077145;28;45588;-66
2023/07/15 02:02:47;;;;;;;;;13.67;12.33;;;;;25.52;49.57;100083.00;5077325;27;45210;-66
2023/07/15 02:05:12;;;;;;;;;9.33;7.33;;;;;25.54;49.77;100099.88;5077454;28;45573;-66
2023/07/15 02:07:38;;;;;;;;;9.67;7.67;;;;;25.53;49.99;100098.25;5077013;28;45408;-66
2023/07/15 02:10:04;;;;;;;;;9.67;5.00;;;;;25.52;49.92;100096.59;5076643;28;45193;-67
2023/07/15 02:12:32;;;;;;;;;4.00;4.00;;;;;24.74;50.05;99973.66;5077327;28;45344;-67
2023/07/15 02:14:57;;;;;;;;;4.67;4.00;;;;;25.48;50.35;100088.13;5059117;27;45772;-66
2023/07/15 02:17:23;;;;;;;;;2.00;2.00;;;;;25.40;50.31;100079.59;5076802;28;45960;-66
2023/07/15 02:19:52;;;;;;;;;2.00;2.00;;;;;25.45;50.42;100101.44;5077153;27;45288;-66
2023/07/15 02:22:20;;;;;;;;;1.00;1.00;;;;;25.46;50.76;100094.94;5080583;28;45215;-67
2023/07/15 02:24:46;;;;;;;;;1.00;1.00;;;;;25.47;50.26;100099.28;5080852;28;45383;-68
2023/07/15 02:27:12;;;;;;;;;1.00;1.00;;;;;25.46;50.27;100113.97;5080062;28;45734;-67
2023/07/15 02:29:37;;;;;;;;;2.00;2.00;;;;;25.42;50.49;100112.81;5079578;28;65731;-66
2023/07/15 02:32:05;;;;;;;;;3.00;1.00;;;;;25.20;51.10;100068.53;5079987;28;56410;-68
2023/07/15 02:34:30;;;;;;;;;3.00;1.33;;;;;25.40;50.99;100107.63;5080698;27;45446;-67
2023/07/15 02:36:56;;;;;;;;;0.67;0.67;;;;;25.37;51.10;100093.72;5080217;28;45284;-67
2023/07/15 02:39:21;;;;;;;;;1.00;1.00;;;;;25.31;51.30;100100.22;5080257;28;45454;-67
2023/07/15 02:41:46;;;;;;;;;1.00;0.50;;;;;25.37;51.19;100104.63;5079828;27;49281;-67
2023/07/15 02:44:12;;;;;;;;;1.00;1.00;;;;;25.36;51.51;100113.84;5080304;27;45228;-68
2023/07/15 02:46:37;;;;;;;;;1.00;1.00;;;;;25.22;51.23;100107.16;5079916;27;46325;-67
2023/07/15 02:49:03;;;;;;;;;0.33;0.00;;;;;25.27;51.52;100120.84;5080244;28;45197;-67
2023/07/15 02:51:28;;;;;;;;;0.75;0.75;;;;;25.25;51.38;100117.56;5080354;28;45274;-67
2023/07/15 02:53:54;;;;;;;;;1.00;1.00;;;;;25.21;51.82;100110.97;5080349;28;45604;-67
2023/07/15 02:56:19;;;;;;;;;2.00;2.00;;;;;25.26;51.92;100116.50;5079345;27;48119;-67
2023/07/15 02:58:44;;;;;;;;;1.00;1.00;;;;;25.25;51.45;100112.94;5079910;28;50265;-66
2023/07/15 03:01:10;;;;;;;;;0.25;0.25;;;;;25.26;51.81;100119.22;5080159;28;45513;-67
2023/07/15 03:03:38;;;;;;;;;0.00;0.00;;;;;25.24;51.91;100105.03;5078663;28;45434;-67
2023/07/15 03:06:03;;;;;;;;;1.25;1.00;;;;;24.85;52.04;100042.56;5079929;28;45883;-67
2023/07/15 03:08:29;;;;;;;;;2.67;1.67;;;;;25.14;52.51;100097.56;5079705;28;45300;-67
2023/07/15 03:10:55;;;;;;;;;2.00;2.00;;;;;25.15;52.59;100104.66;5079560;28;45375;-67
2023/07/15 03:13:20;;;;;;;;;0.33;0.33;;;;;25.10;52.49;100115.50;5080119;28;45248;-67
2023/07/15 03:15:46;;;;;;;;;0.25;0.25;;;;;25.11;52.53;100117.94;5079558;27;45734;-68
2023/07/15 03:18:12;;;;;;;;;0.33;0.33;;;;;25.05;52.83;100129.88;5079620;28;45309;-67
2023/07/15 03:20:37;;;;;;;;;0.00;0.00;;;;;25.06;53.44;100115.19;5079596;27;45486;-67
2023/07/15 03:23:03;;;;;;;;;0.50;0.25;;;;;25.05;53.38;100105.38;5079888;28;45289;-67
2023/07/15 03:25:29;;;;;;;;;3.00;3.00;;;;;25.05;53.51;100102.66;5079295;28;46638;-67
2023/07/15 03:27:55;;;;;;;;;0.00;0.00;;;;;25.06;53.60;100095.31;5079281;27;45650;-66
2023/07/15 03:30:21;;;;;;;;;1.00;0.00;;;;;25.08;53.55;100113.03;5079879;28;45408;-66
2023/07/15 03:32:46;;;;;;;;;0.67;0.67;;;;;25.05;53.25;100113.53;5079565;28;45431;-66
2023/07/15 03:35:12;;;;;;;;;0.00;0.00;;;;;24.97;53.90;100110.41;5079348;28;46685;-67
2023/07/15 03:37:40;;;;;;;;;2.25;0.00;;;;;25.01;54.01;100112.38;5079257;28;45496;-66
2023/07/15 03:40:10;;;;;;;;;1.00;1.00;;;;;25.04;53.99;100117.34;5078976;28;45474;-66
2023/07/15 03:42:36;;;;;;;;;1.00;1.00;;;;;25.04;53.98;100111.91;5079517;28;45434;-67
2023/07/15 03:45:03;;;;;;;;;0.67;0.67;;;;;24.98;54.69;100125.66;5079064;28;46502;-67
2023/07/15 03:47:28;;;;;;;;;1.00;1.00;;;;;24.82;54.52;100113.75;5079073;28;45448;-67
2023/07/15 03:49:54;;;;;;;;;0.00;0.00;;;;;24.90;54.94;100123.38;5079173;28;45410;-66
2023/07/15 03:52:19;;;;;;;;;1.00;1.00;;;;;24.86;55.31;100126.59;5078854;28;56301;-67
2023/07/15 03:54:44;;;;;;;;;1.33;0.33;;;;;24.82;54.91;100116.47;5060622;28;47435;-67
2023/07/15 03:57:10;;;;;;;;;1.00;1.00;;;;;24.81;54.58;100095.78;5078437;28;45263;-67
2023/07/15 03:59:36;;;;;;;;;2.67;1.00;;;;;24.52;55.19;100033.47;5079113;28;45265;-67
2023/07/15 04:02:02;;;;;;;;;2.00;1.00;;;;;24.86;55.43;100071.41;5079055;28;45435;-66
2023/07/15 04:04:27;;;;;;;;;1.00;1.00;;;;;24.84;55.16;100068.94;5078866;28;45944;-67
2023/07/15 04:06:53;;;;;;;;;0.33;0.33;;;;;24.76;55.19;100077.53;5079051;28;45209;-67
2023/07/15 04:09:18;;;;;;;;;0.00;0.00;;;;;24.75;55.45;100091.38;5078801;27;45309;-67
2023/07/15 04:11:44;;;;;;;;;1.00;1.00;;;;;24.58;55.72;100084.09;5079065;28;45458;-67
2023/07/15 04:14:12;;;;;;;;;0.00;0.00;;;;;24.65;55.45;100148.34;5078596;27;47268;-66
2023/07/15 04:16:37;;;;;;;;;0.33;0.33;;;;;24.65;55.79;100167.38;5060404;28;45413;-67
2023/07/15 04:19:02;;;;;;;;;0.00;0.00;;;;;24.19;55.80;100072.38;5078343;28;45432;-67
2023/07/15 04:21:28;;;;;;;;;2.00;2.00;;;;;24.64;55.59;100122.25;5078581;27;45340;-68
2023/07/15 04:23:54;;;;;;;;;0.00;0.00;;;;;24.65;55.40;100116.56;5078422;28;46362;-67
2023/07/15 04:26:22;;;;;;;;;0.00;0.00;;;;;24.73;55.61;100112.56;5078184;27;45550;-68
2023/07/15 04:28:52;;;;;;;;;0.33;0.33;;;;;24.75;54.91;100088.66;5078630;28;45286;-67
2023/07/15 04:31:18;;;;;;;;;1.00;1.00;;;;;24.79;55.68;100092.50;5078401;28;45318;-67
2023/07/15 04:33:48;;;;;;;;;1.00;0.00;;;;;24.39;55.85;100022.16;5076995;27;47731;-67
2023/07/15 04:36:14;;;;;;;;;1.00;1.00;;;;;24.81;55.53;100071.31;5078476;27;45291;-66
2023/07/15 04:38:40;;;;;;;;;0.00;0.00;;;;;24.44;55.59;100014.91;5078418;27;45297;-67
2023/07/15 04:41:06;;;;;;;;;0.00;0.00;;;;;24.62;55.99;100064.56;5078128;28;45328;-68
2023/07/15 04:43:31;;;;;;;;;0.00;0.00;;;;;24.56;55.84;100064.50;5077609;28;46483;-67
2023/07/15 04:45:57;;;;;;;;;2.67;1.33;;;;;24.63;55.99;100071.63;5077829;27;45419;-67
2023/07/15 04:48:23;;;;;;;;;0.25;0.00;;;;;24.29;55.71;100033.72;5078531;28;45486;-67
2023/07/15 04:50:49;;;;;;;;;0.00;0.00;;;;;24.63;55.68;100082.50;5078579;27;45408;-66
2023/07/15 04:53:15;;;;;;;;;1.50;1.00;;;;;24.58;55.65;100064.25;5078095;27;46920;-66
2023/07/15 04:55:41;;;;;;;;;2.00;1.33;;;;;24.42;56.26;100063.22;5077823;28;45430;-66
2023/07/15 04:58:06;;;;;;;;;1.50;1.50;;;;;24.56;56.68;100077.28;5077812;27;45607;-67
2023/07/15 05:00:31;;;;;;;;;2.33;1.00;;;;;24.52;57.12;100073.41;5078229;28;45387;-66
2023/07/15 05:02:57;;;;;;;;;0.67;0.67;;;;;24.52;57.21;100073.41;5077360;28;59988;-67
2023/07/15 05:05:22;;;;;;;;;0.00;0.00;;;;;24.57;57.85;100087.88;5059683;28;45692;-68
2023/07/15 05:07:51;;;;;;;;;0.00;0.00;;;;;24.56;57.19;100112.59;5078056;27;45226;-67
2023/07/15 05:10:16;;;;;;;;;0.00;0.00;;;;;24.58;57.33;100102.31;5077974;28;45605;-67
2023/07/15 05:12:42;;;;;;;;;1.00;1.00;;;;;23.84;57.56;99942.41;5077820;28;46023;-67
2023/07/15 05:15:08;;;;;;;;;0.00;0.00;;;;;24.63;57.61;100087.94;5077955;28;45404;-67
2023/07/15 05:17:34;;;;;;;;;2.00;0.67;;;;;24.39;57.65;100031.13;5077838;27;45323;-67
2023/07/15 05:19:59;;;;;;;;;0.67;0.67;;;;;24.06;58.16;100002.16;5077789;28;45574;-67
2023/07/15 05:22:25;;;;;;;;;1.00;0.00;;;;;24.62;58.10;100100.72;5077377;28;46624;-67
2023/07/15 05:24:50;;;;;;;;;1.00;1.00;;;;;24.50;57.96;100076.41;5059470;28;47104;-67
2023/07/15 05:27:15;;;;;;;;;0.00;0.00;;;;;24.58;58.50;100097.69;5059466;28;45283;-68
2023/07/15 05:29:41;;;;;;;;;1.00;1.00;;;;;24.63;58.27;100099.69;5076649;28;45313;-67
2023/07/15 05:32:07;;;;;;;;;1.33;1.00;;;;;24.59;58.20;100098.50;5077480;28;46480;-67
2023/07/15 05:34:35;;;;;;;;;0.25;0.25;;;;;24.53;58.15;100107.69;5059180;28;46498;-67
2023/07/15 05:37:00;;;;;;;;;2.00;0.00;;;;;24.49;58.34;100101.94;5077568;27;45301;-66
2023/07/15 05:39:26;;;;;;;;;2.00;1.00;;;;;24.58;58.48;100124.03;5077588;28;45331;-66
2023/07/15 05:41:51;;;;;;;;;0.00;0.00;;;;;24.61;58.48;100137.13;5077150;28;46718;-67
2023/07/15 05:44:17;;;;;;;;;0.75;0.75;;;;;24.63;58.40;100145.88;5059115;28;45297;-67
2023/07/15 05:46:42;;;;;;;;;3.00;3.00;;;;;24.62;58.76;100133.34;5077454;28;45336;-67
2023/07/15 05:49:07;;;;;;;;;0.00;0.00;;;;;24.55;58.38;100133.53;5077550;28;46351;-66
2023/07/15 05:51:34;;;;;;;;;1.00;1.00;;;;;24.54;57.55;100133.78;5077179;27;46727;-67
2023/07/15 05:53:59;;;;;;;;;2.00;0.25;;;;;24.52;57.43;100146.78;5077335;28;45645;-67
2023/07/15 05:56:24;;;;;;;;;0.25;0.25;;;;;24.29;57.26;100109.78;5080016;27;45307;-67
2023/07/15 05:58:51;;;;;;;;;0.00;0.00;;;;;24.54;57.39;100150.09;5062553;28;51329;-67
2023/07/15 06:01:16;;;;;;;;;1.33;0.33;;;;;24.52;57.00;100152.22;5080530;28;46817;-67
2023/07/15 06:03:41;;;;;;;;;1.00;1.00;;;;;24.25;56.84;100133.06;5080772;27;45202;-67
2023/07/15 06:06:07;;;;;;;;;0.25;0.25;;;;;24.46;56.75;100164.13;5080699;27;45980;-67
2023/07/15 06:08:32;;;;;;;;;1.25;0.75;;;;;24.12;55.98;100122.53;5081172;28;45304;-68
2023/07/15 06:10:58;;;;;;;;;0.67;0.67;;;;;24.47;56.57;100169.28;5080457;28;46518;-67
2023/07/15 06:13:23;;;;;;;;;1.00;1.00;;;;;24.49;56.75;100164.44;5080655;28;45514;-66
2023/07/15 06:15:50;;;;;;;;;3.75;1.00;;;;;24.37;55.96;100150.09;5080449;27;48203;-68
2023/07/15 06:18:15;;;;;;;;;1.00;1.00;;;;;24.38;55.26;100184.34;5080849;28;45278;-67
2023/07/15 06:20:41;;;;;;;;;0.00;0.00;;;;;24.43;55.39;100206.19;5080526;27;46353;-67
2023/07/15 06:23:06;;;;;;;;;3.33;3.33;;;;;24.42;56.57;100211.84;5080340;28;47095;-67
2023/07/15 06:25:31;;;;;;;;;0.50;0.50;;;;;24.35;55.78;100187.56;5080323;27;45435;-67
2023/07/15 06:27:57;;;;;;;;;0.67;0.67;;;;;23.91;55.99;100141.22;5080831;28;45321;-67
2023/07/15 06:30:22;;;;;;;;;1.67;1.00;;;;;24.28;55.49;100184.19;5061783;28;53802;-68
2023/07/15 06:32:49;;;;;;;;;1.00;0.67;;;;;24.13;55.41;100178.50;5080579;28;45364;-67
2023/07/15 06:35:14;;;;;;;;;3.00;2.00;;;;;24.29;55.60;100206.78;5080271;27;45242;-67
2023/07/15 06:37:40;;;;;;;;;1.00;1.00;;;;;24.32;54.86;100215.25;5062136;28;45361;-67
2023/07/15 06:40:06;;;;;;;;;3.00;1.00;;;;;24.28;54.80;100203.19;5079840;27;45319;-67
2023/07/15 06:42:31;;;;;;;;;0.67;0.67;;;;;24.35;54.95;100209.31;5080156;28;45346;-67
2023/07/15 06:44:56;;;;;;;;;3.00;1.33;;;;;24.34;53.88;100215.81;5080217;27;45482;-68
2023/07/15 06:47:21;;;;;;;;;1.00;1.00;;;;;24.30;54.22;100209.22;5079992;27;45150;-67
2023/07/15 06:49:47;;;;;;;;;3.67;3.00;;;;;23.75;53.89;100117.59;5079828;27;46682;-67
2023/07/15 06:52:12;;;;;;;;;1.00;1.00;;;;;24.24;54.92;100213.75;5045234;28;45592;-66
2023/07/15 06:54:38;;;;;;;;;1.00;1.00;;;;;24.24;55.19;100211.03;5080293;28;45427;-67
2023/07/15 06:57:03;;;;;;;;;1.00;1.00;;;;;24.30;55.50;100227.44;5079940;28;45221;-67
2023/07/15 06:59:28;;;;;;;;;1.00;1.00;;;;;24.31;55.21;100205.44;5079830;27;45766;-68
2023/07/15 07:01:54;;;;;;;;;2.00;2.00;;;;;24.33;54.66;100222.31;5079793;28;45381;-67
2023/07/15 07:04:19;;;;;;;;;1.33;1.33;;;;;24.31;54.64;100210.88;5061672;28;45206;-67
2023/07/15 07:06:45;;;;;;;;;0.75;0.75;;;;;24.30;54.84;100203.81;5079366;28;45454;-66
2023/07/15 07:09:10;;;;;;;;;2.00;2.00;;;;;24.24;54.56;100204.75;5079724;28;45602;-66
2023/07/15 07:11:36;;;;;;;;;0.50;0.50;;;;;24.34;54.38;100215.81;5079186;28;45446;-67
2023/07/15 07:14:01;;;;;;;;;1.00;1.00;;;;;24.21;54.19;100194.38;5061448;28;45382;-67
2023/07/15 07:16:26;;;;;;;;;1.33;1.33;;;;;24.27;53.69;100204.28;5079898;27;45364;-67
2023/07/15 07:18:53;;;;;;;;;1.00;1.00;;;;;23.96;53.47;100154.88;5079725;28;47281;-68
2023/07/15 07:21:18;;;;;;;;;1.00;1.00;;;;;24.26;53.99;100221.63;5061043;28;45401;-67
2023/07/15 07:23:43;;;;;;;;;2.00;2.00;;;;;24.28;53.37;100241.22;5079860;27;45442;-66
2023/07/15 07:26:09;;;;;;;;;1.33;1.33;;;;;24.25;52.93;100220.00;5061020;28;45332;-67
2023/07/15 07:28:42;;;;;;;;;2.75;1.75;;;;;24.08;52.89;100192.00;5077786;28;48419;-67
2023/07/15 07:31:09;;;;;;;;;1.50;1.50;;;;;24.03;53.00;100190.03;5060811;28;45615;-66
2023/07/15 07:33:35;;;;;;;;;5.00;3.00;;;;;23.79;52.54;100159.47;5079351;27;45229;-67
2023/07/15 07:36:01;;;;;;;;;1.67;1.67;;;;;24.17;52.00;100231.25;5079399;27;45230;-67
2023/07/15 07:38:27;;;;;;;;;2.33;1.33;;;;;24.26;51.72;100255.06;5079403;27;45589;-68
2023/07/15 07:40:52;;;;;;;;;1.00;1.00;;;;;24.26;51.16;100252.34;5079155;28;45314;-66
2023/07/15 07:43:17;;;;;;;;;2.00;1.00;;;;;24.23;50.84;100246.59;5078813;28;49943;-67
2023/07/15 07:45:43;;;;;;;;;0.00;0.00;;;;;24.11;50.39;100234.94;5079063;27;49079;-67
2023/07/15 07:48:08;;;;;;;;;0.67;0.67;;;;;24.09;50.00;100228.94;5078792;27;53178;-67
2023/07/15 07:50:35;;;;;;;;;2.00;2.00;;;;;24.11;49.54;100253.97;5079033;28;45490;-66
2023/07/15 07:53:00;;;;;;;;;0.33;0.33;;;;;24.16;49.49;100256.75;5079021;27;45411;-67
2023/07/15 07:55:25;;;;;;;;;2.00;1.00;;;;;24.18;49.52;100258.16;5078951;27;45380;-68
2023/07/15 07:57:51;;;;;;;;;1.33;1.33;;;;;24.21;49.88;100257.66;5078499;28;46153;-67
2023/07/15 08:00:16;;;;;;;;;3.00;1.67;;;;;24.23;49.25;100254.72;5078871;27;45479;-67
2023/07/15 08:02:41;;;;;;;;;1.00;1.00;;;;;24.10;49.12;100252.31;5078730;28;45336;-66
2023/07/15 08:05:08;;;;;;;;;0.00;0.00;;;;;24.21;49.52;100260.38;5079212;27;45362;-66
2023/07/15 08:07:34;;;;;;;;;0.67;0.67;;;;;24.24;49.37;100259.91;5078786;28;46630;-66
2023/07/15 08:09:59;;;;;;;;;2.00;1.00;;;;;24.23;48.88;100262.88;5078197;27;45336;-68
2023/07/15 08:12:25;;;;;;;;;3.00;2.00;;;;;24.27;49.38;100254.00;5078606;27;45317;-67
2023/07/15 08:14:50;;;;;;;;;0.00;0.00;;;;;24.39;49.46;100263.97;5078959;28;45494;-67
2023/07/15 08:17:16;;;;;;;;;1.75;1.75;;;;;24.47;49.57;100253.53;5077973;28;45710;-67
2023/07/15 08:19:41;;;;;;;;;1.00;1.00;;;;;24.53;49.18;100257.97;5078035;28;45237;-66
2023/07/15 08:22:07;;;;;;;;;1.00;1.00;;;;;24.61;48.03;100245.03;5078297;28;45229;-67
2023/07/15 08:24:34;;;;;;;;;3.00;2.00;;;;;24.74;48.13;100266.44;5060276;28;45670;-67
2023/07/15 08:26:59;;;;;;;;;1.00;1.00;;;;;24.80;47.78;100263.53;5077844;28;46585;-68
2023/07/15 08:29:24;;;;;;;;;1.33;1.00;;;;;24.83;48.22;100259.53;5078167;28;45330;-67
2023/07/15 08:31:50;;;;;;;;;2.67;2.00;;;;;24.81;47.91;100253.50;5078361;28;45390;-67
2023/07/15 08:34:15;;;;;;;;;1.25;1.25;;;;;24.84;48.34;100258.44;5078385;27;45506;-67
2023/07/15 08:36:40;;;;;;;;;1.00;1.00;;;;;24.91;48.40;100258.28;5077022;27;59981;-67
2023/07/15 08:39:06;;;;;;;;;1.00;1.00;;;;;24.77;48.18;100255.88;5077717;28;45422;-67
2023/07/15 08:41:31;;;;;;;;;1.00;1.00;;;;;24.86;48.46;100262.56;5077640;28;45268;-68
2023/07/15 08:43:56;;;;;;;;;1.00;1.00;;;;;24.90;49.15;100265.59;5077910;28;45455;-67
2023/07/15 08:46:27;;;;;;;;;1.00;1.00;;;;;24.93;49.04;100267.00;5077605;27;47628;-67
2023/07/15 08:48:54;;;;;;;;;3.00;1.00;;;;;25.01;49.17;100253.00;5077858;28;45250;-67
2023/07/15 08:51:24;;;;;;;;;3.33;1.00;;;;;25.05;49.42;100259.59;5059680;28;45422;-67
2023/07/15 08:53:49;;;;;;;;;2.00;2.00;;;;;25.06;49.27;100251.19;5078112;28;45490;-68
2023/07/15 08:56:15;;;;;;;;;2.00;2.00;;;;;25.10;49.34;100255.03;5077404;28;45898;-68
2023/07/15 08:58:41;;;;;;;;;1.67;1.67;;;;;25.11;48.98;100248.53;5077737;28;45317;-67
2023/07/15 09:01:06;;;;;;;;;3.67;2.00;;;;;25.22;49.29;100256.81;5077342;28;45474;-67
2023/07/15 09:03:32;;;;;;;;;1.00;1.00;;;;;25.32;48.35;100254.22;5077644;28;45187;-66
2023/07/15 09:05:57;;;;;;;;;2.33;2.33;;;;;25.27;48.62;100252.28;5077667;28;46623;-66
2023/07/15 09:08:25;;;;;;;;;1.67;1.67;;;;;25.34;47.85;100252.06;5077619;28;45316;-67
2023/07/15 09:10:54;;;;;;;;;1.33;1.33;;;;;25.39;48.14;100257.56;5077537;28;45351;-67
2023/07/15 09:13:28;;;;;;;;;0.33;0.33;;;;;25.40;48.43;100259.22;5077933;28;45292;-67
2023/07/15 09:15:54;;;;;;;;;1.25;1.25;;;;;25.31;47.49;100236.25;5077513;28;46576;-68
2023/07/15 09:18:20;;;;;;;;;1.75;0.25;;;;;25.35;47.43;100246.38;5077541;28;45329;-66
2023/07/15 09:20:46;;;;;;;;;0.50;0.50;;;;;25.37;47.47;100259.72;5077224;28;45219;-67
2023/07/15 09:23:12;;;;;;;;;2.00;2.00;;;;;25.31;48.16;100241.69;5077599;28;45572;-66
2023/07/15 09:25:37;;;;;;;;;1.50;1.50;;;;;25.14;48.60;100226.25;5076899;27;45694;-67
2023/07/15 09:28:03;;;;;;;;;1.33;1.33;;;;;25.31;48.60;100263.47;5076979;27;45283;-67
2023/07/15 09:30:28;;;;;;;;;1.67;1.67;;;;;25.29;49.17;100261.00;5075764;27;45510;-68
2023/07/15 09:32:54;;;;;;;;;1.33;1.33;;;;;25.21;49.40;100261.44;5077537;28;45447;-66
2023/07/15 09:35:20;;;;;;;;;3.33;2.00;;;;;25.20;49.07;100262.50;5077513;28;45731;-67
2023/07/15 09:37:48;;;;;;;;;0.33;0.33;;;;;25.13;49.32;100267.31;5077314;28;45457;-67
2023/07/15 09:40:14;;;;;;;;;2.00;1.00;;;;;25.03;49.81;100239.97;5058706;28;45384;-67
2023/07/15 09:42:48;;;;;;;;;2.00;2.00;;;;;25.05;50.24;100249.53;5077518;27;45456;-68
2023/07/15 09:45:35;;;;;;;;;3.00;3.00;;;;;24.71;50.07;100199.81;5076970;28;46760;-67
2023/07/15 09:48:05;;;;;;;;;2.00;2.00;;;;;25.08;50.05;100259.09;5077132;27;45374;-68
2023/07/15 09:50:33;;;;;;;;;2.67;1.00;;;;;25.15;50.18;100251.56;5076516;27;45397;-67
2023/07/15 09:52:59;;;;;;;;;1.67;1.67;;;;;25.16;49.86;100250.47;5077144;27;45575;-67
2023/07/15 09:55:25;;;;;;;;;2.67;2.00;;;;;25.26;49.40;100245.19;5076698;28;45601;-66
2023/07/15 09:57:56;;;;;;;;;3.00;3.00;;;;;25.34;48.80;100235.75;5075178;28;45272;-68
2023/07/15 10:00:26;;;;;;;;;2.33;1.00;;;;;25.53;48.14;100267.00;5076603;28;45394;-67
2023/07/15 10:02:57;;;;;;;;;1.33;1.33;;;;;25.57;48.45;100273.59;5076965;28;45332;-67
2023/07/15 10:05:26;;;;;;;;;1.00;1.00;;;;;25.65;48.82;100275.88;5076740;28;46459;-67
2023/07/15 10:07:51;;;;;;;;;4.67;2.00;;;;;25.65;48.60;100264.16;5076533;28;45457;-67
2023/07/15 10:10:20;;;;;;;;;1.00;1.00;;;;;25.86;48.19;100276.97;5076511;28;45324;-66
2023/07/15 10:12:46;;;;;;;;;3.00;2.00;;;;;25.92;47.99;100275.91;5076984;28;45281;-67
2023/07/15 10:15:12;;;;;;;;;2.33;2.33;;;;;25.93;48.16;100271.28;5058218;28;46384;-68
2023/07/15 10:17:38;;;;;;;;;2.67;2.67;;;;;25.86;48.13;100267.97;5076736;27;45274;-70
2023/07/15 10:20:05;;;;;;;;;3.67;1.00;;;;;26.02;47.54;100286.09;5076917;28;45402;-69
2023/07/15 10:22:35;;;;;;;;;1.33;1.33;;;;;25.93;46.84;100250.34;5076826;28;45490;-67
2023/07/15 10:25:03;;;;;;;;;2.00;1.00;;;;;25.68;46.59;100193.72;5076111;28;46160;-67
2023/07/15 10:27:30;;;;;;;;;1.33;1.00;;;;;26.15;46.54;100254.91;5076401;28;45322;-69
2023/07/15 10:30:13;;;;;;;;;2.33;0.67;;;;;26.26;46.46;100226.66;5076424;28;45542;-67
2023/07/15 10:32:39;;;;;;;;;6.33;2.00;;;;;26.27;46.12;100184.69;5076510;27;45336;-68
2023/07/15 10:35:05;;;;;;;;;3.00;2.00;;;;;26.22;45.41;100190.91;5041056;28;54384;-66
2023/07/15 10:37:33;;;;;;;;;2.33;2.00;;;;;26.27;45.42;100198.34;5076240;27;45422;-68
2023/07/15 10:39:58;;;;;;;;;2.00;2.00;;;;;26.08;45.30;100171.47;5057902;28;45261;-68
2023/07/15 10:42:24;;;;;;;;;2.33;2.00;;;;;26.39;44.97;100223.50;5060931;28;45462;-67
2023/07/15 10:44:56;;;;;;;;;2.00;2.00;;;;;26.27;45.01;100229.13;5080144;28;46639;-67
2023/07/15 10:47:21;;;;;;;;;1.25;1.25;;;;;26.02;45.05;100188.03;5079958;28;45237;-67
2023/07/15 10:49:48;;;;;;;;;2.00;2.00;;;;;26.48;45.12;100245.69;5061666;28;45252;-67
2023/07/15 10:52:19;;;;;;;;;4.00;3.00;;;;;26.51;44.46;100228.78;5079949;27;45472;-67
2023/07/15 10:54:44;;;;;;;;;2.33;2.33;;;;;26.54;44.43;100239.16;5079473;27;45985;-68
2023/07/15 10:57:12;;;;;;;;;2.00;2.00;;;;;26.55;43.74;100227.19;5079225;27;45454;-69
2023/07/15 10:59:39;;;;;;;;;2.00;2.00;;;;;26.57;43.75;100216.84;5079909;27;45319;-67
2023/07/15 11:02:05;;;;;;;;;5.00;3.67;;;;;26.61;44.20;100224.22;5079745;28;45235;-66
2023/07/15 11:04:31;;;;;;;;;3.00;2.00;;;;;26.47;43.87;100200.41;5079212;27;46715;-68
2023/07/15 11:07:04;;;;;;;;;2.33;2.33;;;;;26.66;43.51;100232.44;5079416;28;45350;-68
2023/07/15 11:09:30;;;;;;;;;1.67;1.67;;;;;26.59;43.72;100226.38;5079381;28;45314;-67
2023/07/15 11:11:55;;;;;;;;;1.00;1.00;;;;;26.52;43.61;100203.16;5079461;28;45553;-67
2023/07/15 11:14:29;;;;;;;;;4.00;1.67;;;;;26.58;43.32;100200.22;5079222;27;45481;-68
2023/07/15 11:17:00;;;;;;;;;2.00;2.00;;;;;26.66;43.19;100220.72;5079391;28;45496;-67
2023/07/15 11:19:27;;;;;;;;;2.67;1.67;;;;;26.71;43.64;100209.03;5079322;28;45463;-67